Terminal Aerodrome Forecast
Issued by NWS

Home | Current Version | Previous Version | Graphics & Text | Print | Product List | Glossary On
Versions: 1 2 3 4 5 6 7 8 9 10 11 12 13 14
000
FTUS43 KTOP 181227 AAA
TAFMHK
TAF AMD
KMHK 181227Z 1812/1912 31014G22KT P6SM OVC029
     FM181300 31014G22KT P6SM BKN023 OVC035
     FM181500 31021G29KT P6SM SCT030
     FM190100 34011KT P6SM FEW150
     FM190300 36006KT P6SM FEW250=

USA.gov is the U.S. government's official web portal to all federal, state and local government web resources and services.